BAW303 LFPG-EGLL
Flight info
| Callsign | BAW303 |
|---|---|
| Flight time | 0h 46m |
| Altitude | 24000 |
| Route | OPALE DCT KESAX DCT DIMAL DCT ALESO |
| Aircraft | A20N/M-SDE2E3FGHIRWXY/LB1 |
Departure
| Time | 2026-05-05 14:51 |
|---|---|
| Airport | Charles de Gaulle International Airport (LFPG) |
Arrival
| Time | 2026-05-05 15:37 |
|---|---|
| Airport | London Heathrow Airport (EGLL) |
| Time | Latitude | Longitude | Altitude | Speed | Heading |
|---|---|---|---|---|---|
| 2026-05-05 14:21 | 49.00192 | 2.56739 | 366 ft | 0 kts | 355° |
| 2026-05-05 14:39 | 49.00191 | 2.56739 | 357 ft | 1 kts | 355° |
| 2026-05-05 14:39 | 49.00169 | 2.56742 | 365 ft | 4 kts | 354° |
| 2026-05-05 14:39 | 49.00143 | 2.56751 | 363 ft | 4 kts | 331° |
| 2026-05-05 14:40 | 49.00125 | 2.56775 | 359 ft | 4 kts | 286° |
| 2026-05-05 14:40 | 49.00123 | 2.56796 | 360 ft | 1 kts | 265° |
| 2026-05-05 14:40 | 49.00123 | 2.56798 | 357 ft | 0 kts | 265° |
| 2026-05-05 14:43 | 49.00122 | 2.56785 | 357 ft | 2 kts | 265° |
| 2026-05-05 14:44 | 49.00121 | 2.56753 | 357 ft | 4 kts | 265° |
| 2026-05-05 14:44 | 49.00118 | 2.56696 | 364 ft | 6 kts | 265° |
| 2026-05-05 14:44 | 49.00114 | 2.56621 | 357 ft | 8 kts | 265° |
| 2026-05-05 14:44 | 49.00109 | 2.56536 | 357 ft | 8 kts | 266° |
| 2026-05-05 14:45 | 49.00105 | 2.56442 | 357 ft | 9 kts | 266° |
| 2026-05-05 14:45 | 49.00099 | 2.56344 | 363 ft | 9 kts | 265° |
| 2026-05-05 14:45 | 49.00094 | 2.56244 | 357 ft | 10 kts | 265° |
| 2026-05-05 14:45 | 49.00088 | 2.56137 | 365 ft | 13 kts | 264° |
| 2026-05-05 14:46 | 49.00077 | 2.55959 | 357 ft | 18 kts | 265° |
| 2026-05-05 14:46 | 49.00072 | 2.55795 | 357 ft | 13 kts | 269° |
| 2026-05-05 14:46 | 49.00062 | 2.55679 | 357 ft | 9 kts | 244° |
| 2026-05-05 14:46 | 49.00022 | 2.55658 | 360 ft | 6 kts | 172° |
| 2026-05-05 14:47 | 48.99973 | 2.55670 | 357 ft | 8 kts | 183° |
| 2026-05-05 14:47 | 48.99920 | 2.55618 | 359 ft | 10 kts | 213° |
| 2026-05-05 14:47 | 48.99858 | 2.55644 | 366 ft | 11 kts | 126° |
| 2026-05-05 14:47 | 48.99830 | 2.55758 | 357 ft | 12 kts | 109° |
| 2026-05-05 14:48 | 48.99761 | 2.55808 | 362 ft | 12 kts | 178° |
| 2026-05-05 14:48 | 48.99702 | 2.55815 | 362 ft | 0 kts | 175° |
| 2026-05-05 14:50 | 48.99688 | 2.55816 | 362 ft | 4 kts | 176° |
| 2026-05-05 14:50 | 48.99651 | 2.55820 | 357 ft | 8 kts | 175° |
| 2026-05-05 14:50 | 48.99604 | 2.55889 | 358 ft | 10 kts | 94° |
| 2026-05-05 14:50 | 48.99612 | 2.56080 | 358 ft | 44 kts | 85° |
| 2026-05-05 14:51 | 48.99662 | 2.56979 | 360 ft | 128 kts | 85° |
| 2026-05-05 14:51 | 48.99746 | 2.58664 | 569 ft | 178 kts | 89° |
| 2026-05-05 14:51 | 48.99796 | 2.60626 | 1238 ft | 189 kts | 88° |
| 2026-05-05 14:51 | 48.99886 | 2.62753 | 1967 ft | 208 kts | 85° |
| 2026-05-05 14:52 | 49.00011 | 2.64887 | 3262 ft | 199 kts | 88° |
| 2026-05-05 14:52 | 49.00107 | 2.67025 | 4387 ft | 204 kts | 89° |
| 2026-05-05 14:52 | 49.00183 | 2.69184 | 5451 ft | 209 kts | 90° |
| 2026-05-05 14:52 | 49.00268 | 2.71406 | 6457 ft | 212 kts | 90° |
| 2026-05-05 14:53 | 49.00373 | 2.73658 | 7385 ft | 216 kts | 90° |
| 2026-05-05 14:53 | 49.00481 | 2.75962 | 8322 ft | 220 kts | 89° |
| 2026-05-05 14:53 | 49.00598 | 2.78297 | 9231 ft | 223 kts | 89° |
| 2026-05-05 14:53 | 49.00714 | 2.80670 | 9779 ft | 226 kts | 89° |
| 2026-05-05 14:54 | 49.00904 | 2.83065 | 9945 ft | 230 kts | 80° |
| 2026-05-05 14:54 | 49.01257 | 2.84598 | 9969 ft | 233 kts | 66° |
| 2026-05-05 14:54 | 49.02263 | 2.86528 | 9978 ft | 236 kts | 43° |
| 2026-05-05 14:54 | 49.03721 | 2.87659 | 9969 ft | 239 kts | 19° |
| 2026-05-05 14:55 | 49.05941 | 2.87523 | 9969 ft | 243 kts | 346° |
| 2026-05-05 14:55 | 49.06947 | 2.86761 | 9978 ft | 244 kts | 335° |
| 2026-05-05 14:55 | 49.08333 | 2.85272 | 9976 ft | 242 kts | 329° |
| 2026-05-05 14:55 | 49.09664 | 2.83710 | 10190 ft | 242 kts | 330° |
| 2026-05-05 14:56 | 49.10996 | 2.82139 | 10936 ft | 247 kts | 330° |
| 2026-05-05 14:56 | 49.12377 | 2.80529 | 11808 ft | 252 kts | 329° |
| 2026-05-05 14:56 | 49.13774 | 2.78906 | 12686 ft | 254 kts | 329° |
| 2026-05-05 14:56 | 49.15198 | 2.77253 | 13502 ft | 260 kts | 329° |
| 2026-05-05 14:57 | 49.16650 | 2.75567 | 14244 ft | 264 kts | 329° |
| 2026-05-05 14:57 | 49.18116 | 2.73864 | 15001 ft | 266 kts | 329° |
| 2026-05-05 14:57 | 49.19608 | 2.72131 | 15690 ft | 271 kts | 328° |
| 2026-05-05 14:57 | 49.21124 | 2.70369 | 16376 ft | 274 kts | 328° |
| 2026-05-05 14:58 | 49.22653 | 2.68593 | 17044 ft | 279 kts | 328° |
| 2026-05-05 14:58 | 49.24212 | 2.66780 | 17722 ft | 283 kts | 327° |
| 2026-05-05 14:58 | 49.25783 | 2.64951 | 18410 ft | 285 kts | 328° |
| 2026-05-05 14:58 | 49.27364 | 2.63111 | 19054 ft | 287 kts | 328° |
| 2026-05-05 14:59 | 49.28961 | 2.61250 | 19658 ft | 289 kts | 328° |
| 2026-05-05 14:59 | 49.30567 | 2.59376 | 20304 ft | 290 kts | 327° |
| 2026-05-05 14:59 | 49.32175 | 2.57498 | 20960 ft | 292 kts | 328° |
| 2026-05-05 14:59 | 49.33810 | 2.55590 | 21495 ft | 298 kts | 327° |
| 2026-05-05 15:00 | 49.35462 | 2.53658 | 22119 ft | 299 kts | 328° |
| 2026-05-05 15:00 | 49.36563 | 2.52371 | 22492 ft | 302 kts | 327° |
| 2026-05-05 15:00 | 49.38826 | 2.49720 | 23176 ft | 309 kts | 327° |
| 2026-05-05 15:00 | 49.40522 | 2.47733 | 23723 ft | 311 kts | 327° |
| 2026-05-05 15:01 | 49.42241 | 2.45718 | 23969 ft | 312 kts | 327° |
| 2026-05-05 15:01 | 49.44006 | 2.43652 | 24022 ft | 328 kts | 327° |
| 2026-05-05 15:01 | 49.45886 | 2.41469 | 24024 ft | 349 kts | 327° |
| 2026-05-05 15:01 | 49.47879 | 2.39160 | 24022 ft | 369 kts | 327° |
| 2026-05-05 15:02 | 49.49990 | 2.36717 | 24024 ft | 388 kts | 328° |
| 2026-05-05 15:02 | 49.52198 | 2.34159 | 24019 ft | 406 kts | 327° |
| 2026-05-05 15:02 | 49.54501 | 2.31482 | 24022 ft | 423 kts | 327° |
| 2026-05-05 15:02 | 49.56889 | 2.28685 | 24022 ft | 438 kts | 326° |
| 2026-05-05 15:03 | 49.59318 | 2.25813 | 24017 ft | 441 kts | 326° |
| 2026-05-05 15:03 | 49.61750 | 2.22922 | 24018 ft | 440 kts | 325° |
| 2026-05-05 15:03 | 49.64171 | 2.20042 | 24013 ft | 440 kts | 326° |
| 2026-05-05 15:03 | 49.66599 | 2.17153 | 24013 ft | 441 kts | 325° |
| 2026-05-05 15:04 | 49.69027 | 2.14259 | 24016 ft | 441 kts | 325° |
| 2026-05-05 15:04 | 49.71457 | 2.11360 | 24016 ft | 442 kts | 325° |
| 2026-05-05 15:04 | 49.73857 | 2.08494 | 24014 ft | 442 kts | 325° |
| 2026-05-05 15:04 | 49.76294 | 2.05580 | 24013 ft | 442 kts | 325° |
| 2026-05-05 15:05 | 49.81156 | 1.99753 | 24017 ft | 441 kts | 325° |
| 2026-05-05 15:05 | 49.83580 | 1.96844 | 24020 ft | 441 kts | 325° |
| 2026-05-05 15:05 | 49.86008 | 1.93929 | 24021 ft | 442 kts | 325° |
| 2026-05-05 15:06 | 49.88444 | 1.90999 | 24025 ft | 442 kts | 325° |
| 2026-05-05 15:06 | 49.90884 | 1.88090 | 24028 ft | 443 kts | 326° |
| 2026-05-05 15:06 | 49.93313 | 1.85247 | 24025 ft | 442 kts | 326° |
| 2026-05-05 15:06 | 49.95764 | 1.82365 | 24025 ft | 442 kts | 325° |
| 2026-05-05 15:07 | 49.98203 | 1.79454 | 24034 ft | 441 kts | 325° |
| 2026-05-05 15:07 | 50.00621 | 1.76525 | 24035 ft | 440 kts | 325° |
| 2026-05-05 15:07 | 50.03032 | 1.73573 | 24036 ft | 442 kts | 325° |
| 2026-05-05 15:07 | 50.05444 | 1.70604 | 24040 ft | 441 kts | 325° |
| 2026-05-05 15:08 | 50.07999 | 1.67971 | 24030 ft | 440 kts | 329° |
| 2026-05-05 15:08 | 50.10648 | 1.65554 | 24036 ft | 441 kts | 330° |
| 2026-05-05 15:08 | 50.13332 | 1.63224 | 24041 ft | 441 kts | 332° |
| 2026-05-05 15:08 | 50.16048 | 1.61017 | 24041 ft | 439 kts | 333° |
| 2026-05-05 15:09 | 50.18797 | 1.58902 | 24043 ft | 440 kts | 334° |
| 2026-05-05 15:09 | 50.21569 | 1.56846 | 24044 ft | 442 kts | 334° |
| 2026-05-05 15:09 | 50.24362 | 1.54815 | 24047 ft | 441 kts | 335° |
| 2026-05-05 15:09 | 50.27110 | 1.52829 | 24049 ft | 440 kts | 335° |
| 2026-05-05 15:10 | 50.29888 | 1.50821 | 24049 ft | 440 kts | 335° |
| 2026-05-05 15:10 | 50.32666 | 1.48806 | 24046 ft | 441 kts | 335° |
| 2026-05-05 15:10 | 50.35457 | 1.46774 | 24054 ft | 442 kts | 335° |
| 2026-05-05 15:10 | 50.38245 | 1.44737 | 24052 ft | 441 kts | 334° |
| 2026-05-05 15:11 | 50.41024 | 1.42700 | 24050 ft | 440 kts | 334° |
| 2026-05-05 15:11 | 50.43795 | 1.40665 | 24050 ft | 439 kts | 334° |
| 2026-05-05 15:11 | 50.46547 | 1.38599 | 24059 ft | 439 kts | 331° |
| 2026-05-05 15:11 | 50.49111 | 1.36031 | 24051 ft | 435 kts | 321° |
| 2026-05-05 15:12 | 50.51350 | 1.32866 | 24055 ft | 433 kts | 314° |
| 2026-05-05 15:12 | 50.53444 | 1.29479 | 24059 ft | 431 kts | 312° |
| 2026-05-05 15:12 | 50.55496 | 1.26044 | 24061 ft | 431 kts | 312° |
| 2026-05-05 15:12 | 50.57526 | 1.22633 | 24064 ft | 431 kts | 313° |
| 2026-05-05 15:13 | 50.59659 | 1.19221 | 24058 ft | 434 kts | 313° |
| 2026-05-05 15:13 | 50.61835 | 1.15790 | 23868 ft | 450 kts | 314° |
| 2026-05-05 15:13 | 50.64028 | 1.12339 | 23636 ft | 452 kts | 313° |
| 2026-05-05 15:13 | 50.66247 | 1.08837 | 23390 ft | 450 kts | 313° |
| 2026-05-05 15:14 | 50.68448 | 1.05358 | 23114 ft | 447 kts | 313° |
| 2026-05-05 15:14 | 50.70633 | 1.01896 | 22843 ft | 444 kts | 313° |
| 2026-05-05 15:14 | 50.72813 | 0.98437 | 22561 ft | 443 kts | 313° |
| 2026-05-05 15:14 | 50.74975 | 0.94999 | 22304 ft | 441 kts | 313° |
| 2026-05-05 15:15 | 50.77129 | 0.91564 | 22032 ft | 439 kts | 314° |
| 2026-05-05 15:15 | 50.79272 | 0.88146 | 21773 ft | 435 kts | 314° |
| 2026-05-05 15:15 | 50.81395 | 0.84756 | 21509 ft | 433 kts | 315° |
| 2026-05-05 15:15 | 50.83508 | 0.81378 | 21250 ft | 431 kts | 315° |
| 2026-05-05 15:16 | 50.85591 | 0.78043 | 20992 ft | 430 kts | 314° |
| 2026-05-05 15:16 | 50.87690 | 0.74677 | 20741 ft | 428 kts | 314° |
| 2026-05-05 15:16 | 50.89776 | 0.71327 | 20505 ft | 426 kts | 314° |
| 2026-05-05 15:16 | 50.91839 | 0.68009 | 19961 ft | 420 kts | 315° |
| 2026-05-05 15:17 | 50.93887 | 0.64712 | 19213 ft | 419 kts | 315° |
| 2026-05-05 15:17 | 50.95922 | 0.61430 | 18593 ft | 415 kts | 315° |
| 2026-05-05 15:17 | 50.97945 | 0.58162 | 18139 ft | 416 kts | 315° |
| 2026-05-05 15:17 | 50.99984 | 0.54867 | 17251 ft | 419 kts | 315° |
| 2026-05-05 15:18 | 51.02011 | 0.51585 | 16551 ft | 414 kts | 315° |
| 2026-05-05 15:18 | 51.04009 | 0.48344 | 15954 ft | 406 kts | 315° |
| 2026-05-05 15:18 | 51.05968 | 0.45163 | 15363 ft | 399 kts | 315° |
| 2026-05-05 15:18 | 51.07932 | 0.42085 | 14778 ft | 394 kts | 317° |
| 2026-05-05 15:19 | 51.09900 | 0.39079 | 14203 ft | 391 kts | 317° |
| 2026-05-05 15:19 | 51.11861 | 0.36096 | 13565 ft | 389 kts | 318° |
| 2026-05-05 15:19 | 51.13811 | 0.33121 | 12957 ft | 386 kts | 317° |
| 2026-05-05 15:19 | 51.15698 | 0.30239 | 12584 ft | 374 kts | 317° |
| 2026-05-05 15:20 | 51.17534 | 0.27429 | 12183 ft | 356 kts | 317° |
| 2026-05-05 15:20 | 51.19275 | 0.24760 | 11738 ft | 339 kts | 317° |
| 2026-05-05 15:20 | 51.20926 | 0.22227 | 11426 ft | 320 kts | 317° |
| 2026-05-05 15:20 | 51.22490 | 0.19824 | 11139 ft | 303 kts | 317° |
| 2026-05-05 15:21 | 51.23980 | 0.17535 | 10716 ft | 293 kts | 316° |
| 2026-05-05 15:21 | 51.25434 | 0.15299 | 10119 ft | 291 kts | 316° |
| 2026-05-05 15:21 | 51.26886 | 0.13065 | 9485 ft | 288 kts | 316° |
| 2026-05-05 15:21 | 51.28319 | 0.10855 | 8864 ft | 285 kts | 317° |
| 2026-05-05 15:22 | 51.29729 | 0.08677 | 8354 ft | 278 kts | 317° |
| 2026-05-05 15:22 | 51.31099 | 0.06563 | 7884 ft | 270 kts | 317° |
| 2026-05-05 15:22 | 51.32396 | 0.04461 | 7452 ft | 263 kts | 309° |
| 2026-05-05 15:22 | 51.33116 | 0.01844 | 7158 ft | 254 kts | 282° |
| 2026-05-05 15:23 | 51.33311 | -0.00883 | 7108 ft | 243 kts | 276° |
| 2026-05-05 15:23 | 51.33559 | -0.03543 | 7037 ft | 241 kts | 293° |
| 2026-05-05 15:23 | 51.34295 | -0.05970 | 6678 ft | 243 kts | 293° |
| 2026-05-05 15:23 | 51.34561 | -0.08587 | 6373 ft | 245 kts | 269° |
| 2026-05-05 15:24 | 51.34342 | -0.11296 | 6143 ft | 243 kts | 261° |
| 2026-05-05 15:24 | 51.34047 | -0.13947 | 6124 ft | 242 kts | 261° |
| 2026-05-05 15:24 | 51.33760 | -0.16605 | 6110 ft | 242 kts | 264° |
| 2026-05-05 15:24 | 51.33702 | -0.19296 | 6111 ft | 242 kts | 273° |
| 2026-05-05 15:25 | 51.33771 | -0.21979 | 6114 ft | 242 kts | 276° |
| 2026-05-05 15:25 | 51.33856 | -0.24665 | 6122 ft | 242 kts | 275° |
| 2026-05-05 15:25 | 51.33929 | -0.27368 | 6128 ft | 243 kts | 275° |
| 2026-05-05 15:25 | 51.34005 | -0.30063 | 6122 ft | 242 kts | 275° |
| 2026-05-05 15:26 | 51.34141 | -0.32710 | 6126 ft | 242 kts | 277° |
| 2026-05-05 15:26 | 51.34287 | -0.35396 | 6125 ft | 241 kts | 278° |
| 2026-05-05 15:26 | 51.34434 | -0.38081 | 6129 ft | 241 kts | 277° |
| 2026-05-05 15:26 | 51.34567 | -0.40757 | 6130 ft | 242 kts | 276° |
| 2026-05-05 15:27 | 51.34718 | -0.43433 | 6125 ft | 241 kts | 277° |
| 2026-05-05 15:27 | 51.34865 | -0.46114 | 6128 ft | 242 kts | 277° |
| 2026-05-05 15:27 | 51.35011 | -0.48793 | 6127 ft | 241 kts | 277° |
| 2026-05-05 15:27 | 51.35165 | -0.51461 | 5950 ft | 241 kts | 277° |
| 2026-05-05 15:28 | 51.35301 | -0.54140 | 5597 ft | 242 kts | 277° |
| 2026-05-05 15:28 | 51.35433 | -0.56822 | 5281 ft | 241 kts | 275° |
| 2026-05-05 15:28 | 51.35573 | -0.59478 | 5136 ft | 238 kts | 277° |
| 2026-05-05 15:28 | 51.35707 | -0.62126 | 5130 ft | 240 kts | 277° |
| 2026-05-05 15:29 | 51.35836 | -0.64790 | 5123 ft | 240 kts | 277° |
| 2026-05-05 15:29 | 51.35954 | -0.67423 | 5007 ft | 240 kts | 277° |
| 2026-05-05 15:29 | 51.36078 | -0.70122 | 4698 ft | 239 kts | 276° |
| 2026-05-05 15:29 | 51.36211 | -0.72756 | 4388 ft | 237 kts | 276° |
| 2026-05-05 15:30 | 51.36345 | -0.75377 | 4150 ft | 235 kts | 277° |
| 2026-05-05 15:30 | 51.36487 | -0.77989 | 4120 ft | 236 kts | 283° |
| 2026-05-05 15:30 | 51.37118 | -0.80314 | 3835 ft | 230 kts | 313° |
| 2026-05-05 15:30 | 51.38421 | -0.81737 | 3471 ft | 223 kts | 345° |
| 2026-05-05 15:31 | 51.39920 | -0.82171 | 3178 ft | 220 kts | 356° |
| 2026-05-05 15:31 | 51.41440 | -0.82374 | 3108 ft | 219 kts | 357° |
| 2026-05-05 15:31 | 51.42967 | -0.82541 | 3116 ft | 221 kts | 358° |
| 2026-05-05 15:31 | 51.44507 | -0.82700 | 3111 ft | 221 kts | 358° |
| 2026-05-05 15:32 | 51.46041 | -0.82704 | 3100 ft | 219 kts | 13° |
| 2026-05-05 15:32 | 51.47358 | -0.81573 | 3106 ft | 217 kts | 46° |
| 2026-05-05 15:32 | 51.47931 | -0.79429 | 3093 ft | 208 kts | 89° |
| 2026-05-05 15:32 | 51.47751 | -0.77244 | 3122 ft | 189 kts | 96° |
| 2026-05-05 15:33 | 51.47586 | -0.75213 | 3106 ft | 185 kts | 90° |
| 2026-05-05 15:33 | 51.47560 | -0.73219 | 3101 ft | 170 kts | 85° |
| 2026-05-05 15:33 | 51.47582 | -0.71370 | 2951 ft | 163 kts | 85° |
| 2026-05-05 15:33 | 51.47596 | -0.69573 | 2739 ft | 160 kts | 87° |
| 2026-05-05 15:34 | 51.47606 | -0.67788 | 2502 ft | 159 kts | 87° |
| 2026-05-05 15:34 | 51.47617 | -0.66018 | 2276 ft | 159 kts | 87° |
| 2026-05-05 15:34 | 51.47628 | -0.64245 | 2048 ft | 157 kts | 85° |
| 2026-05-05 15:34 | 51.47640 | -0.62521 | 1861 ft | 149 kts | 87° |
| 2026-05-05 15:35 | 51.47649 | -0.60914 | 1648 ft | 139 kts | 86° |
| 2026-05-05 15:35 | 51.47659 | -0.59417 | 1466 ft | 135 kts | 86° |
| 2026-05-05 15:35 | 51.47670 | -0.57904 | 1285 ft | 133 kts | 87° |
| 2026-05-05 15:35 | 51.47680 | -0.56440 | 1109 ft | 133 kts | 84° |
| 2026-05-05 15:36 | 51.47691 | -0.54956 | 907 ft | 132 kts | 88° |
| 2026-05-05 15:36 | 51.47699 | -0.53469 | 727 ft | 134 kts | 86° |
| 2026-05-05 15:36 | 51.47716 | -0.51960 | 537 ft | 135 kts | 86° |
| 2026-05-05 15:36 | 51.47738 | -0.50444 | 357 ft | 136 kts | 85° |
| 2026-05-05 15:37 | 51.47752 | -0.48928 | 193 ft | 137 kts | 84° |
| 2026-05-05 15:37 | 51.47759 | -0.47411 | 91 ft | 128 kts | 87° |
| 2026-05-05 15:37 | 51.47759 | -0.46228 | 91 ft | 74 kts | 89° |
| 2026-05-05 15:37 | 51.47758 | -0.45565 | 89 ft | 40 kts | 100° |
| 2026-05-05 15:38 | 51.47642 | -0.45469 | 89 ft | 15 kts | 180° |
| 2026-05-05 15:38 | 51.47598 | -0.45550 | 89 ft | 8 kts | 260° |
| 2026-05-05 15:38 | 51.47596 | -0.45659 | 92 ft | 12 kts | 270° |
| 2026-05-05 15:38 | 51.47595 | -0.45837 | 93 ft | 19 kts | 269° |
| 2026-05-05 15:39 | 51.47595 | -0.46049 | 93 ft | 19 kts | 270° |
| 2026-05-05 15:39 | 51.47594 | -0.46271 | 93 ft | 20 kts | 269° |
| 2026-05-05 15:39 | 51.47593 | -0.46500 | 91 ft | 21 kts | 269° |
| 2026-05-05 15:39 | 51.47592 | -0.46739 | 89 ft | 22 kts | 270° |
| 2026-05-05 15:40 | 51.47583 | -0.46901 | 93 ft | 22 kts | 268° |
| 2026-05-05 15:40 | 51.47582 | -0.47154 | 93 ft | 23 kts | 269° |
| 2026-05-05 15:40 | 51.47581 | -0.47417 | 92 ft | 24 kts | 269° |
| 2026-05-05 15:40 | 51.47580 | -0.47691 | 90 ft | 25 kts | 270° |
| 2026-05-05 15:41 | 51.47580 | -0.47973 | 93 ft | 25 kts | 270° |
| 2026-05-05 15:41 | 51.47579 | -0.48245 | 92 ft | 24 kts | 270° |
| 2026-05-05 15:41 | 51.47563 | -0.48462 | 93 ft | 15 kts | 221° |
| 2026-05-05 15:41 | 51.47484 | -0.48476 | 89 ft | 7 kts | 179° |
| 2026-05-05 15:42 | 51.47434 | -0.48475 | 89 ft | 6 kts | 180° |
| 2026-05-05 15:42 | 51.47406 | -0.48475 | 89 ft | 0 kts | 179° |
| 2026-05-05 15:42 | 51.47401 | -0.48474 | 89 ft | 3 kts | 179° |
| 2026-05-05 15:42 | 51.47350 | -0.48474 | 89 ft | 12 kts | 180° |
| 2026-05-05 15:43 | 51.47255 | -0.48473 | 90 ft | 14 kts | 180° |
| 2026-05-05 15:43 | 51.47155 | -0.48472 | 92 ft | 14 kts | 180° |
| 2026-05-05 15:43 | 51.47053 | -0.48472 | 92 ft | 15 kts | 179° |
| 2026-05-05 15:43 | 51.46949 | -0.48470 | 90 ft | 15 kts | 180° |
| 2026-05-05 15:44 | 51.46878 | -0.48532 | 89 ft | 10 kts | 270° |
| 2026-05-05 15:44 | 51.46924 | -0.48573 | 89 ft | 2 kts | 2° |
| 2026-05-05 15:44 | 51.46926 | -0.48573 | 89 ft | 0 kts | 0° |
| 2026-05-05 15:44 | 51.46930 | -0.48573 | 89 ft | 0 kts | 0° |